Time;durP1;ratioP1;P1;durP2;ratioP2;P2;SDS_P1;SDS_P2;PMS_P1;PMS_P2;Temp;Humidity;BMP_temperature;BMP_pressure;BME280_temperature;BME280_humidity;BME280_pressure;Samples;Min_cycle;Max_cycle;Signal;HPM_P1;HPM_P2
2022/07/03 00:01:58;;;;;;;4.20;3.10;;;17.40;99.90;;;;;;4999175;28;20225;-70
2022/07/03 00:04:25;;;;;;;2.70;2.50;;;17.40;99.90;;;;;;5001546;28;20546;-69
2022/07/03 00:06:54;;;;;;;4.10;2.97;;;17.30;99.90;;;;;;4999480;28;20222;-69
2022/07/03 00:09:21;;;;;;;4.33;3.17;;;17.20;99.90;;;;;;5000866;28;20195;-69
2022/07/03 00:11:47;;;;;;;3.80;2.77;;;17.10;99.90;;;;;;5006129;28;20360;-69
2022/07/03 00:14:14;;;;;;;4.07;3.13;;;17.00;99.90;;;;;;4999714;28;20196;-69
2022/07/03 00:16:41;;;;;;;5.20;3.40;;;17.10;99.90;;;;;;5001343;28;20199;-69
2022/07/03 00:19:08;;;;;;;4.60;3.50;;;17.00;99.90;;;;;;4999262;28;20207;-69
2022/07/03 00:21:43;;;;;;;4.00;3.37;;;17.20;99.90;;;;;;5002563;28;20266;-70
2022/07/03 00:24:28;;;;;;;4.57;3.40;;;17.20;99.90;;;;;;5006980;28;20192;-70
2022/07/03 00:26:57;;;;;;;4.83;3.30;;;17.30;99.90;;;;;;4996417;28;20201;-70
2022/07/03 00:29:29;;;;;;;4.60;3.17;;;17.40;99.90;;;;;;5000941;28;20208;-69
2022/07/03 00:31:57;;;;;;;4.00;3.10;;;17.30;99.90;;;;;;4998274;28;20205;-69
2022/07/03 00:34:25;;;;;;;4.53;3.43;;;17.00;99.90;;;;;;5000509;28;20200;-69
2022/07/03 00:36:52;;;;;;;6.93;2.90;;;16.90;99.90;;;;;;4999693;28;20208;-69
2022/07/03 00:39:19;;;;;;;4.43;3.33;;;16.80;99.90;;;;;;4999203;28;20685;-71
2022/07/03 00:41:46;;;;;;;4.80;3.23;;;16.60;99.90;;;;;;5001054;28;20227;-69
2022/07/03 00:44:13;;;;;;;4.80;3.30;;;16.50;99.90;;;;;;4998226;28;20200;-70
2022/07/03 00:46:41;;;;;;;4.97;3.37;;;16.50;99.90;;;;;;4999018;28;20211;-70
2022/07/03 00:49:10;;;;;;;5.40;3.60;;;16.50;99.90;;;;;;4998665;28;20193;-69
2022/07/03 00:51:40;;;;;;;4.67;3.47;;;16.50;99.90;;;;;;5003179;28;20193;-69
2022/07/03 00:54:09;;;;;;;5.27;3.67;;;16.50;99.90;;;;;;4999623;28;20201;-70
2022/07/03 00:56:39;;;;;;;4.83;3.43;;;16.50;99.90;;;;;;4999711;28;20192;-71
2022/07/03 00:59:06;;;;;;;5.03;3.70;;;16.70;99.90;;;;;;4998133;28;20204;-70
2022/07/03 01:01:36;;;;;;;3.60;3.07;;;16.70;99.90;;;;;;5000638;28;20605;-69
2022/07/03 01:04:36;;;;;;;4.17;3.27;;;16.70;99.90;;;;;;5003754;28;20745;-69
2022/07/03 01:07:12;;;;;;;4.07;3.30;;;16.50;99.90;;;;;;5000033;28;20204;-67
2022/07/03 01:09:58;;;;;;;3.60;3.07;;;16.40;99.90;;;;;;4997539;28;20199;-67
2022/07/03 01:12:46;;;;;;;3.53;3.00;;;16.50;99.90;;;;;;4999050;28;20201;-66
2022/07/03 01:15:44;;;;;;;4.23;2.90;;;16.30;99.90;;;;;;5002270;28;20217;-67
2022/07/03 01:18:54;;;;;;;3.67;3.00;;;16.10;99.90;;;;;;4997649;28;20216;-67
2022/07/03 01:22:10;;;;;;;4.53;3.00;;;16.20;99.90;;;;;;4999445;28;20215;-67
2022/07/03 01:24:56;;;;;;;5.97;3.33;;;16.20;99.90;;;;;;4999312;28;20615;-67
2022/07/03 01:27:41;;;;;;;3.97;2.70;;;16.20;99.90;;;;;;4998300;28;20193;-67
2022/07/03 01:30:10;;;;;;;4.53;3.70;;;16.20;99.90;;;;;;4996990;28;20199;-67
2022/07/03 01:32:45;;;;;;;4.70;3.00;;;16.00;99.90;;;;;;4997990;28;20203;-67
2022/07/03 01:35:15;;;;;;;3.60;2.97;;;15.90;99.90;;;;;;4993421;28;20220;-67
2022/07/03 01:37:42;;;;;;;3.93;2.90;;;15.90;99.90;;;;;;4996092;28;20593;-67
2022/07/03 01:40:09;;;;;;;3.63;3.10;;;15.90;99.90;;;;;;5000758;28;20197;-67
2022/07/03 01:42:40;;;;;;;5.43;3.40;;;16.10;99.90;;;;;;5005640;28;20220;-67
2022/07/03 01:45:09;;;;;;;4.47;3.00;;;16.20;99.90;;;;;;5005646;28;20208;-67
2022/07/03 01:47:39;;;;;;;5.13;2.90;;;16.20;99.90;;;;;;5010668;28;20205;-67
2022/07/03 01:50:10;;;;;;;3.90;3.23;;;16.30;99.90;;;;;;5008641;28;20219;-67
2022/07/03 01:52:39;;;;;;;3.30;2.80;;;16.30;99.90;;;;;;5010251;28;20200;-67
2022/07/03 01:55:15;;;;;;;3.53;2.90;;;16.40;99.90;;;;;;5012072;28;20218;-67
2022/07/03 01:57:51;;;;;;;7.07;2.80;;;16.40;99.90;;;;;;5010161;28;20206;-67
2022/07/03 02:00:22;;;;;;;3.67;2.70;;;16.30;99.90;;;;;;5007950;28;20204;-66
2022/07/03 02:03:04;;;;;;;3.93;2.67;;;16.20;99.90;;;;;;5010381;28;20492;-66
2022/07/03 02:05:37;;;;;;;3.70;3.00;;;16.20;99.90;;;;;;5004160;28;20343;-67
2022/07/03 02:08:35;;;;;;;3.47;2.70;;;16.20;99.90;;;;;;5009400;28;20222;-66
2022/07/03 02:11:21;;;;;;;5.13;3.17;;;16.10;99.90;;;;;;5004177;28;20199;-66
2022/07/03 02:14:15;;;;;;;4.07;2.57;;;15.90;99.90;;;;;;5010005;28;20258;-66
2022/07/03 02:16:53;;;;;;;3.53;2.63;;;15.70;99.90;;;;;;5009572;28;20196;-67
2022/07/03 02:19:37;;;;;;;4.13;3.00;;;15.60;99.90;;;;;;5007515;28;20650;-66
2022/07/03 02:22:08;;;;;;;3.47;2.73;;;15.50;99.90;;;;;;5004357;28;20208;-67
2022/07/03 02:24:45;;;;;;;3.77;2.70;;;15.50;99.90;;;;;;5009503;28;20216;-66
2022/07/03 02:27:25;;;;;;;5.07;3.00;;;15.60;99.90;;;;;;5005854;28;20188;-67
2022/07/03 02:30:06;;;;;;;4.80;3.00;;;15.70;99.90;;;;;;5010145;28;20206;-66
2022/07/03 02:32:38;;;;;;;5.17;3.00;;;15.60;99.90;;;;;;5010086;28;20196;-67
2022/07/03 02:35:07;;;;;;;6.80;3.30;;;15.60;99.90;;;;;;5004420;28;20231;-66
2022/07/03 02:38:03;;;;;;;4.73;2.83;;;15.50;99.90;;;;;;5010196;28;20212;-67
2022/07/03 02:40:36;;;;;;;3.67;2.70;;;15.40;99.90;;;;;;5009564;28;20678;-67
2022/07/03 02:43:03;;;;;;;5.23;3.00;;;15.30;99.90;;;;;;5005412;28;20491;-67
2022/07/03 02:45:47;;;;;;;4.47;3.10;;;15.30;99.90;;;;;;5009074;28;20224;-67
2022/07/03 02:48:26;;;;;;;4.13;3.07;;;15.30;99.90;;;;;;5005488;28;20199;-67
2022/07/03 02:51:03;;;;;;;5.63;3.03;;;15.50;99.90;;;;;;5007225;28;20203;-67
2022/07/03 02:53:44;;;;;;;7.87;3.13;;;15.40;99.90;;;;;;5009317;28;20697;-67
2022/07/03 02:56:17;;;;;;;3.10;2.63;;;15.40;99.90;;;;;;5004517;28;20303;-67
2022/07/03 02:59:02;;;;;;;3.93;3.00;;;15.30;99.90;;;;;;5008103;28;20208;-67
2022/07/03 03:01:34;;;;;;;3.43;2.67;;;15.40;99.90;;;;;;5009352;28;20196;-67
2022/07/03 03:04:19;;;;;;;3.93;2.90;;;15.30;99.90;;;;;;5009575;28;20262;-66
2022/07/03 03:06:52;;;;;;;5.20;3.03;;;15.20;99.90;;;;;;5007485;28;20229;-67
2022/07/03 03:09:31;;;;;;;4.70;2.97;;;15.20;99.90;;;;;;5006249;28;20189;-67
2022/07/03 03:12:01;;;;;;;3.50;3.10;;;15.00;99.90;;;;;;5008037;28;20196;-66
2022/07/03 03:14:40;;;;;;;3.70;3.23;;;15.10;99.90;;;;;;5008687;28;20203;-67
2022/07/03 03:17:08;;;;;;;6.80;3.00;;;15.30;99.90;;;;;;5002812;28;20654;-67
2022/07/03 03:19:43;;;;;;;4.93;3.30;;;15.40;99.90;;;;;;5009371;28;20203;-66
2022/07/03 03:22:41;;;;;;;3.83;2.70;;;15.40;99.90;;;;;;5009329;28;20224;-67
2022/07/03 03:25:11;;;;;;;4.50;3.10;;;15.40;99.90;;;;;;5008233;28;20219;-67
2022/07/03 03:27:38;;;;;;;3.80;2.90;;;15.30;99.90;;;;;;5005530;28;20192;-66
2022/07/03 03:30:06;;;;;;;4.63;2.90;;;15.30;99.90;;;;;;5013518;28;20203;-67
2022/07/03 03:32:35;;;;;;;4.53;3.30;;;15.40;99.90;;;;;;5012748;28;20669;-67
2022/07/03 03:35:03;;;;;;;4.37;3.30;;;15.40;99.90;;;;;;5010315;28;20219;-67
2022/07/03 03:37:30;;;;;;;4.83;3.50;;;15.50;99.90;;;;;;5011683;28;20215;-67
2022/07/03 03:39:57;;;;;;;5.03;3.10;;;15.40;99.90;;;;;;5011500;28;20192;-67
2022/07/03 03:42:24;;;;;;;3.20;2.83;;;15.30;99.90;;;;;;5011128;28;20216;-67
2022/07/03 03:44:51;;;;;;;4.57;3.10;;;15.30;99.90;;;;;;5005595;28;20216;-67
2022/07/03 03:47:18;;;;;;;3.90;2.97;;;15.30;99.90;;;;;;5011679;28;20499;-66
2022/07/03 03:49:45;;;;;;;4.97;3.10;;;15.40;99.90;;;;;;5004628;28;20207;-67
2022/07/03 03:52:12;;;;;;;3.50;3.00;;;15.40;99.90;;;;;;5009572;28;20195;-66
2022/07/03 03:54:39;;;;;;;4.20;3.03;;;15.50;99.90;;;;;;5009336;28;20224;-67
2022/07/03 03:57:36;;;;;;;4.20;3.00;;;15.40;99.90;;;;;;5011423;28;20682;-67
2022/07/03 04:00:04;;;;;;;3.47;2.90;;;15.40;99.90;;;;;;5000758;28;20200;-67
2022/07/03 04:02:31;;;;;;;5.80;3.20;;;15.60;99.90;;;;;;5008615;28;20216;-67
2022/07/03 04:04:58;;;;;;;4.83;2.90;;;15.50;99.90;;;;;;5010196;28;20721;-67
2022/07/03 04:07:25;;;;;;;4.40;3.43;;;15.50;99.90;;;;;;5010972;28;20733;-66
2022/07/03 04:09:51;;;;;;;3.80;2.70;;;15.60;99.90;;;;;;5006550;28;20195;-66
2022/07/03 04:12:18;;;;;;;4.50;2.90;;;15.70;99.90;;;;;;5010274;28;20203;-66
2022/07/03 04:14:45;;;;;;;8.17;3.53;;;15.70;99.90;;;;;;5010470;28;20590;-67
2022/07/03 04:17:11;;;;;;;4.17;2.97;;;15.70;99.90;;;;;;5006583;28;20655;-67
2022/07/03 04:19:39;;;;;;;4.67;2.90;;;15.60;99.90;;;;;;5013695;28;20578;-67
2022/07/03 04:22:08;;;;;;;3.50;2.50;;;15.70;99.90;;;;;;5011576;28;20239;-66
2022/07/03 04:24:36;;;;;;;5.80;2.80;;;15.80;99.90;;;;;;5010220;28;20235;-67
2022/07/03 04:27:03;;;;;;;3.33;2.53;;;15.80;99.90;;;;;;5011216;28;20200;-67
2022/07/03 04:29:30;;;;;;;3.73;2.63;;;15.80;99.90;;;;;;5011038;28;20192;-67
2022/07/03 04:31:56;;;;;;;4.03;2.70;;;15.80;99.90;;;;;;5010777;28;20193;-67
2022/07/03 04:34:23;;;;;;;3.60;2.53;;;15.70;99.90;;;;;;5013325;28;20191;-67
2022/07/03 04:36:50;;;;;;;6.03;3.03;;;15.80;99.90;;;;;;4972350;28;1077055;-67
2022/07/03 04:39:16;;;;;;;3.10;2.63;;;15.90;99.90;;;;;;5012093;28;20199;-67
2022/07/03 04:41:43;;;;;;;5.10;3.07;;;15.90;99.90;;;;;;5010836;28;20200;-67
2022/07/03 04:44:10;;;;;;;3.77;2.87;;;16.10;99.90;;;;;;5006484;28;20577;-67
2022/07/03 04:46:36;;;;;;;5.40;3.23;;;16.20;99.90;;;;;;5011155;28;20671;-67
2022/07/03 04:49:03;;;;;;;4.57;2.83;;;16.30;99.90;;;;;;5011084;28;20266;-67
2022/07/03 04:51:30;;;;;;;3.93;2.87;;;16.40;99.90;;;;;;5010837;28;20219;-67
2022/07/03 04:53:56;;;;;;;5.33;3.00;;;16.40;99.90;;;;;;5011844;28;20295;-67
2022/07/03 04:56:23;;;;;;;4.57;3.20;;;16.50;99.90;;;;;;5011542;28;20217;-67
2022/07/03 04:58:49;;;;;;;4.60;3.10;;;16.60;99.90;;;;;;5009874;28;20196;-67
2022/07/03 05:01:16;;;;;;;3.67;2.70;;;16.80;99.90;;;;;;5011443;28;20196;-67
2022/07/03 05:03:43;;;;;;;5.20;3.10;;;16.80;99.90;;;;;;5010739;28;20775;-67
2022/07/03 05:06:09;;;;;;;4.40;3.20;;;16.80;99.90;;;;;;5011348;28;20219;-67
2022/07/03 05:08:36;;;;;;;5.60;3.90;;;16.80;99.90;;;;;;5009657;28;20197;-67
2022/07/03 05:11:03;;;;;;;6.63;4.17;;;16.80;99.90;;;;;;5011506;28;20200;-67
2022/07/03 05:13:29;;;;;;;6.50;4.57;;;16.90;99.90;;;;;;5014555;28;20199;-67
2022/07/03 05:15:56;;;;;;;8.17;4.30;;;17.10;99.90;;;;;;5008077;28;20601;-67
2022/07/03 05:18:23;;;;;;;5.80;4.63;;;17.20;99.90;;;;;;5007371;28;20235;-67
2022/07/03 05:20:49;;;;;;;4.83;4.00;;;17.40;99.90;;;;;;5011054;28;20207;-67
2022/07/03 05:23:16;;;;;;;6.30;4.47;;;17.40;99.90;;;;;;5010992;28;20227;-67
2022/07/03 05:25:43;;;;;;;6.83;4.50;;;17.40;99.90;;;;;;5004270;28;20236;-67
2022/07/03 05:28:09;;;;;;;4.90;4.03;;;17.50;99.90;;;;;;5010674;28;20561;-67
2022/07/03 05:30:36;;;;;;;4.97;4.47;;;17.60;99.90;;;;;;5010620;28;20196;-67
2022/07/03 05:33:03;;;;;;;5.83;3.97;;;17.70;99.90;;;;;;5010959;28;20572;-67
2022/07/03 05:35:29;;;;;;;5.60;4.27;;;17.80;99.90;;;;;;5006184;28;20219;-67
2022/07/03 05:37:56;;;;;;;5.10;4.00;;;17.90;99.90;;;;;;5010551;28;20208;-67
2022/07/03 05:40:23;;;;;;;5.37;3.67;;;17.80;99.90;;;;;;5010970;28;20219;-67
2022/07/03 05:42:49;;;;;;;6.33;4.30;;;17.90;99.90;;;;;;5010218;28;20227;-67
2022/07/03 05:45:16;;;;;;;4.53;3.47;;;18.10;99.90;;;;;;4999182;28;20209;-67
2022/07/03 05:47:43;;;;;;;4.77;3.50;;;18.10;99.90;;;;;;5010360;28;20484;-67
2022/07/03 05:50:10;;;;;;;5.33;3.80;;;18.10;99.90;;;;;;5010902;28;20196;-67
2022/07/03 05:52:37;;;;;;;4.83;3.70;;;18.10;99.90;;;;;;5010394;28;20200;-67
2022/07/03 05:55:04;;;;;;;4.87;3.80;;;18.30;99.90;;;;;;5007976;28;20220;-67
2022/07/03 05:57:31;;;;;;;5.03;3.53;;;18.40;99.90;;;;;;5010250;28;20669;-67
2022/07/03 06:00:00;;;;;;;3.67;3.23;;;18.60;99.90;;;;;;5010894;28;20202;-67
2022/07/03 06:02:26;;;;;;;4.47;3.47;;;18.70;99.90;;;;;;5002104;28;20714;-67
2022/07/03 06:04:53;;;;;;;4.53;3.33;;;18.80;99.90;;;;;;5009803;28;20212;-67
2022/07/03 06:07:21;;;;;;;4.93;3.60;;;18.80;99.90;;;;;;5010515;28;20584;-67
2022/07/03 06:09:48;;;;;;;4.50;3.07;;;18.90;99.90;;;;;;5005742;28;20243;-67
2022/07/03 06:12:14;;;;;;;4.47;3.13;;;19.10;99.90;;;;;;5010321;28;20187;-67
2022/07/03 06:14:41;;;;;;;6.77;3.37;;;19.20;99.90;;;;;;5010016;28;20223;-67
2022/07/03 06:17:08;;;;;;;4.63;3.10;;;19.40;99.90;;;;;;5010930;28;20199;-67
2022/07/03 06:19:34;;;;;;;4.80;3.20;;;19.50;99.90;;;;;;5004395;28;20202;-67
2022/07/03 06:22:01;;;;;;;4.07;3.10;;;19.60;99.90;;;;;;5002751;28;20674;-67
2022/07/03 06:24:28;;;;;;;3.87;3.07;;;19.90;99.90;;;;;;5009411;28;20713;-67
2022/07/03 06:26:54;;;;;;;5.27;3.20;;;20.30;99.90;;;;;;5007525;28;20662;-67
2022/07/03 06:29:21;;;;;;;5.40;3.00;;;20.60;99.90;;;;;;5010112;28;20203;-67
2022/07/03 06:31:48;;;;;;;3.78;3.30;;;20.70;99.90;;;;;;5009701;28;20200;-67
2022/07/03 06:34:14;;;;;;;6.10;3.17;;;20.80;99.90;;;;;;5004404;28;20244;-67
2022/07/03 06:36:41;;;;;;;7.72;3.30;;;20.80;99.90;;;;;;5007040;28;20211;-66
2022/07/03 06:39:08;;;;;;;3.25;2.72;;;20.70;99.90;;;;;;5008506;28;20207;-67
2022/07/03 06:41:34;;;;;;;3.95;2.95;;;20.70;99.90;;;;;;5009532;28;20199;-67
2022/07/03 06:44:01;;;;;;;5.55;3.70;;;20.80;99.90;;;;;;5000916;28;20228;-67
2022/07/03 06:46:28;;;;;;;6.80;3.42;;;20.70;99.90;;;;;;5004970;28;20216;-67
2022/07/03 06:48:54;;;;;;;3.72;3.00;;;20.70;99.90;;;;;;5009707;28;20559;-67
2022/07/03 06:51:21;;;;;;;5.78;4.53;;;20.80;99.90;;;;;;5005200;28;20192;-67
2022/07/03 06:53:48;;;;;;;9.30;5.00;;;20.80;99.90;;;;;;5011390;28;20204;-68
2022/07/03 06:56:14;;;;;;;13.87;7.13;;;20.80;99.90;;;;;;5009255;28;20220;-68
2022/07/03 06:58:41;;;;;;;11.70;5.72;;;20.80;99.90;;;;;;5009341;28;20215;-67
2022/07/03 07:01:08;;;;;;;15.93;5.80;;;20.90;99.90;;;;;;5003950;28;20577;-66
2022/07/03 07:03:34;;;;;;;5.38;3.72;;;21.10;99.90;;;;;;5009070;28;20262;-66
2022/07/03 07:06:01;;;;;;;5.35;4.13;;;21.40;99.90;;;;;;5009100;28;20216;-67
2022/07/03 07:08:28;;;;;;;5.35;3.45;;;21.70;99.90;;;;;;5004338;28;20200;-66
2022/07/03 07:10:55;;;;;;;6.70;3.00;;;22.00;99.90;;;;;;5009883;28;20199;-66
2022/07/03 07:13:21;;;;;;;4.63;3.22;;;22.80;99.90;;;;;;5009577;28;20576;-66
2022/07/03 07:15:48;;;;;;;5.82;3.30;;;23.90;99.90;;;;;;5006844;28;20231;-67
2022/07/03 07:18:15;;;;;;;4.10;2.88;;;25.10;99.90;;;;;;5002947;28;20207;-67
2022/07/03 07:20:41;;;;;;;5.07;2.83;;;26.10;99.90;;;;;;5009213;28;20199;-67
2022/07/03 07:23:08;;;;;;;3.92;3.10;;;26.90;99.90;;;;;;5009429;28;20609;-66
2022/07/03 07:25:35;;;;;;;4.25;2.83;;;27.00;99.90;;;;;;5002083;28;20216;-66
2022/07/03 07:28:09;;;;;;;4.32;2.85;;;27.50;99.90;;;;;;5010491;28;20262;-67
2022/07/03 07:30:36;;;;;;;3.33;2.50;;;27.50;99.90;;;;;;5008783;28;20196;-67
2022/07/03 07:33:03;;;;;;;4.45;2.67;;;27.80;99.90;;;;;;5000490;28;20196;-66
2022/07/03 07:35:29;;;;;;;3.75;2.60;;;28.20;99.90;;;;;;5004202;28;20227;-67
2022/07/03 07:37:58;;;;;;;4.22;2.63;;;27.90;99.90;;;;;;5008978;28;20208;-67
2022/07/03 07:40:30;;;;;;;5.88;2.55;;;27.80;99.90;;;;;;5009899;28;20214;-66
2022/07/03 07:42:57;;;;;;;3.35;2.80;;;28.10;99.90;;;;;;5006978;28;20243;-67
2022/07/03 07:45:24;;;;;;;3.33;2.33;;;27.80;99.90;;;;;;5008235;28;20216;-66
2022/07/03 07:47:50;;;;;;;3.33;2.30;;;28.10;99.90;;;;;;5008598;28;20283;-66
2022/07/03 07:50:17;;;;;;;2.10;1.90;;;28.00;99.90;;;;;;5006308;28;20200;-66
2022/07/03 07:52:44;;;;;;;4.40;2.15;;;28.00;99.90;;;;;;5006533;28;20208;-69
2022/07/03 07:55:10;;;;;;;3.95;2.00;;;27.70;99.90;;;;;;5013534;28;20243;-68
2022/07/03 07:57:39;;;;;;;3.17;1.95;;;27.90;99.90;;;;;;5008602;28;20250;-71
2022/07/03 08:00:09;;;;;;;2.05;1.77;;;27.90;99.90;;;;;;5000056;28;20188;-69
2022/07/03 08:05:36;;;;;;;3.72;1.85;;;27.90;99.90;;;;;;5003039;28;20223;-68
2022/07/03 08:08:16;;;;;;;2.47;2.00;;;27.60;99.90;;;;;;5001260;28;20196;-68
2022/07/03 08:10:50;;;;;;;3.25;1.80;;;27.10;99.90;;;;;;5019744;28;20200;-68
2022/07/03 08:13:18;;;;;;;2.50;1.73;;;26.70;99.90;;;;;;5012135;28;20568;-68
2022/07/03 08:15:49;;;;;;;2.17;1.90;;;26.30;99.90;;;;;;5008573;28;20220;-68
2022/07/03 08:18:15;;;;;;;2.40;1.80;;;26.00;99.90;;;;;;5012214;28;20575;-68
2022/07/03 08:20:42;;;;;;;4.07;2.00;;;25.90;99.90;;;;;;5011814;28;20196;-69
2022/07/03 08:23:09;;;;;;;3.63;2.83;;;25.90;99.90;;;;;;5012300;28;20220;-68
2022/07/03 08:25:36;;;;;;;2.28;1.90;;;25.70;99.90;;;;;;5006222;28;20212;-69
2022/07/03 08:28:03;;;;;;;3.53;2.08;;;25.60;99.90;;;;;;5011715;28;20686;-71
2022/07/03 08:30:29;;;;;;;3.03;1.85;;;25.70;99.90;;;;;;5011303;28;20275;-69
2022/07/03 08:32:57;;;;;;;3.00;2.00;;;25.70;99.90;;;;;;5009047;28;20204;-69
2022/07/03 08:35:24;;;;;;;2.25;1.90;;;26.00;99.90;;;;;;5011154;28;20698;-69
2022/07/03 08:37:52;;;;;;;4.45;2.20;;;26.00;99.90;;;;;;5011486;28;20204;-70
2022/07/03 08:40:19;;;;;;;2.30;1.90;;;26.20;99.90;;;;;;5011031;28;20197;-70
2022/07/03 08:42:49;;;;;;;2.28;2.05;;;26.50;99.90;;;;;;5018576;28;20203;-69
2022/07/03 08:45:20;;;;;;;3.45;1.85;;;26.70;99.90;;;;;;5011213;28;20223;-71
2022/07/03 08:47:49;;;;;;;3.40;1.88;;;26.80;99.90;;;;;;5011476;28;20204;-69
2022/07/03 08:50:18;;;;;;;2.50;1.60;;;26.90;99.90;;;;;;5009198;28;20188;-67
2022/07/03 08:52:45;;;;;;;1.90;1.70;;;27.00;99.90;;;;;;5009760;28;20560;-67
2022/07/03 08:55:13;;;;;;;1.85;1.48;;;27.20;99.90;;;;;;5015274;28;20709;-67
2022/07/03 08:57:42;;;;;;;2.25;1.60;;;27.30;99.90;;;;;;5011241;28;20223;-67
2022/07/03 09:00:14;;;;;;;1.92;1.70;;;27.60;99.90;;;;;;5010653;28;20196;-67
2022/07/03 09:02:43;;;;;;;2.30;1.63;;;27.80;99.90;;;;;;5011044;28;20546;-67
2022/07/03 09:05:11;;;;;;;1.77;1.60;;;27.70;99.90;;;;;;5010500;28;20224;-67
2022/07/03 09:07:40;;;;;;;2.25;1.70;;;27.50;99.90;;;;;;5006522;28;20342;-69
2022/07/03 09:10:13;;;;;;;1.88;1.65;;;27.50;99.90;;;;;;5010800;28;20196;-70
2022/07/03 09:12:44;;;;;;;2.72;1.58;;;27.50;99.90;;;;;;5010730;28;20694;-70
2022/07/03 09:15:11;;;;;;;2.00;1.50;;;27.60;99.90;;;;;;5008839;28;20212;-69
2022/07/03 09:17:38;;;;;;;1.73;1.40;;;27.90;99.90;;;;;;5010587;28;20200;-69
2022/07/03 09:20:06;;;;;;;2.25;1.48;;;28.10;99.90;;;;;;5010186;28;20215;-68
2022/07/03 09:22:35;;;;;;;1.30;1.20;;;28.10;99.90;;;;;;5009190;28;20667;-70
2022/07/03 09:25:14;;;;;;;1.85;1.40;;;28.30;99.90;;;;;;5005636;28;20227;-69
2022/07/03 09:27:51;;;;;;;1.50;1.40;;;28.30;99.90;;;;;;5010450;28;20195;-69
2022/07/03 09:30:19;;;;;;;3.53;1.23;;;28.50;99.90;;;;;;5009363;28;20199;-70
2022/07/03 09:32:48;;;;;;;5.30;1.40;;;28.50;99.90;;;;;;5002966;28;20192;-70
2022/07/03 09:35:20;;;;;;;2.10;1.23;;;28.60;99.90;;;;;;5010263;28;20224;-69
2022/07/03 09:37:53;;;;;;;2.40;1.30;;;28.60;99.90;;;;;;5011468;28;20701;-69
2022/07/03 09:40:21;;;;;;;3.03;1.20;;;28.50;99.90;;;;;;5002827;28;20196;-69
2022/07/03 09:43:04;;;;;;;4.50;1.20;;;28.60;99.90;;;;;;5009750;28;20208;-70
2022/07/03 09:45:51;;;;;;;1.75;1.15;;;28.40;99.90;;;;;;5010236;28;20227;-69
2022/07/03 09:48:31;;;;;;;2.90;1.17;;;28.60;99.90;;;;;;5010425;28;20214;-69
2022/07/03 09:51:28;;;;;;;3.97;1.20;;;28.70;99.90;;;;;;5009288;28;20674;-67
2022/07/03 09:54:02;;;;;;;1.95;1.20;;;28.80;99.90;;;;;;5007178;28;20235;-66
2022/07/03 09:56:37;;;;;;;2.53;1.50;;;29.00;99.90;;;;;;5010012;28;20222;-66
2022/07/03 09:59:07;;;;;;;2.05;1.10;;;29.30;99.90;;;;;;5010440;28;20680;-67
2022/07/03 10:01:36;;;;;;;5.07;1.08;;;29.30;99.90;;;;;;5010133;28;20200;-67
2022/07/03 10:04:19;;;;;;;1.48;1.10;;;29.20;99.90;;;;;;5009460;28;20718;-67
2022/07/03 10:06:49;;;;;;;1.92;1.38;;;29.30;99.90;;;;;;5008178;28;20279;-67
2022/07/03 10:09:24;;;;;;;1.45;1.10;;;29.40;99.90;;;;;;5010380;28;20207;-67
2022/07/03 10:11:52;;;;;;;2.08;1.70;;;29.30;99.90;;;;;;5009561;28;20580;-67
2022/07/03 10:14:24;;;;;;;1.45;1.33;;;29.40;99.90;;;;;;5009919;28;20196;-67
2022/07/03 10:16:51;;;;;;;1.23;1.05;;;29.50;99.90;;;;;;5005871;28;20200;-67
2022/07/03 10:19:20;;;;;;;1.42;1.25;;;29.50;99.90;;;;;;5010121;28;20192;-67
2022/07/03 10:21:56;;;;;;;4.93;1.17;;;29.40;99.90;;;;;;5009776;28;20196;-67
2022/07/03 10:24:25;;;;;;;3.35;1.40;;;29.30;99.90;;;;;;5003567;28;20227;-69
2022/07/03 10:26:53;;;;;;;2.92;1.10;;;29.40;99.90;;;;;;5009364;28;20577;-69
2022/07/03 10:29:22;;;;;;;4.18;1.17;;;29.50;99.90;;;;;;5009951;28;20199;-70
2022/07/03 10:31:55;;;;;;;1.20;1.10;;;29.50;99.90;;;;;;5009154;28;20278;-70
2022/07/03 10:34:23;;;;;;;1.80;1.00;;;29.50;99.90;;;;;;5008861;28;20204;-69
2022/07/03 10:37:02;;;;;;;3.20;2.15;;;29.70;99.90;;;;;;5010319;28;20208;-69
2022/07/03 10:39:37;;;;;;;3.28;2.38;;;30.00;99.90;;;;;;5009813;28;20219;-70
2022/07/03 10:44:51;;;;;;;1.52;1.30;;;29.70;99.90;;;;;;5002511;28;20227;-69
2022/07/03 10:47:48;;;;;;;1.25;1.10;;;29.50;99.90;;;;;;5009362;28;20196;-69
2022/07/03 10:50:21;;;;;;;1.50;1.23;;;29.00;99.90;;;;;;4992200;28;20196;-69
2022/07/03 10:52:48;;;;;;;4.63;1.40;;;29.00;99.90;;;;;;5001219;28;20205;-68
2022/07/03 10:55:16;;;;;;;2.28;1.42;;;29.30;99.90;;;;;;5007569;28;20231;-68
2022/07/03 10:58:04;;;;;;;1.60;1.08;;;29.60;99.90;;;;;;5007571;28;20239;-67
2022/07/03 11:00:30;;;;;;;1.20;1.10;;;29.90;99.90;;;;;;5007579;28;20203;-68
2022/07/03 11:02:57;;;;;;;1.98;1.38;;;30.10;99.90;;;;;;5012363;28;20215;-68
2022/07/03 11:05:26;;;;;;;1.48;1.10;;;29.90;99.90;;;;;;5008161;28;20220;-68
2022/07/03 11:07:53;;;;;;;1.33;1.05;;;30.00;99.90;;;;;;5007777;28;20195;-68
2022/07/03 11:10:19;;;;;;;1.42;1.30;;;30.00;99.90;;;;;;5006968;28;20200;-67
2022/07/03 11:13:04;;;;;;;1.50;1.17;;;29.90;99.90;;;;;;5008928;28;20192;-67
2022/07/03 11:15:36;;;;;;;3.78;2.58;;;29.70;99.80;;;;;;5008722;28;20216;-67
2022/07/03 11:18:11;;;;;;;4.13;2.45;;;29.80;99.90;;;;;;4997407;28;20594;-67
2022/07/03 11:20:44;;;;;;;2.05;1.60;;;29.70;99.90;;;;;;5008856;28;20200;-67
2022/07/03 11:23:11;;;;;;;2.08;1.45;;;29.60;99.90;;;;;;5008677;28;20566;-68
2022/07/03 11:25:48;;;;;;;2.35;1.10;;;29.80;99.60;;;;;;5007791;28;20227;-67
2022/07/03 11:28:33;;;;;;;1.60;1.30;;;29.80;99.60;;;;;;5008903;28;20566;-67
2022/07/03 11:33:53;;;;;;;1.25;1.15;;;29.90;99.00;;;;;;5008395;28;20194;-67
2022/07/03 11:36:31;;;;;;;1.60;1.00;;;30.10;98.50;;;;;;5007537;28;20602;-68
2022/07/03 11:38:57;;;;;;;1.20;1.00;;;30.20;98.00;;;;;;5008881;28;20223;-67
2022/07/03 11:41:26;;;;;;;1.30;0.80;;;30.10;98.10;;;;;;5008511;28;20277;-68
2022/07/03 11:43:58;;;;;;;1.35;0.93;;;29.70;98.20;;;;;;5009604;28;20227;-67
2022/07/03 11:46:27;;;;;;;4.90;1.73;;;30.10;99.80;;;;;;5011453;28;20702;-68
2022/07/03 11:49:14;;;;;;;1.15;1.05;;;30.10;97.80;;;;;;5012150;28;20279;-68
2022/07/03 11:51:43;;;;;;;1.20;1.10;;;29.90;97.80;;;;;;5012752;28;20246;-67
2022/07/03 11:54:10;;;;;;;1.35;0.90;;;30.10;98.00;;;;;;5011089;28;20214;-68
2022/07/03 11:56:38;;;;;;;1.48;0.98;;;30.30;97.40;;;;;;5011957;28;20216;-68
2022/07/03 11:59:06;;;;;;;1.88;0.90;;;30.40;97.80;;;;;;5012119;28;20666;-68
2022/07/03 12:01:39;;;;;;;1.60;1.10;;;30.20;97.30;;;;;;5012506;28;20203;-68
2022/07/03 12:04:21;;;;;;;1.90;1.45;;;30.30;98.10;;;;;;5012827;28;20223;-68
2022/07/03 12:06:59;;;;;;;0.80;0.80;;;30.10;97.90;;;;;;5012204;28;20733;-68
2022/07/03 12:09:36;;;;;;;1.67;1.20;;;30.10;96.40;;;;;;5007344;28;20195;-68
2022/07/03 12:12:07;;;;;;;3.67;1.00;;;30.10;97.30;;;;;;5006773;28;20558;-68
2022/07/03 12:14:34;;;;;;;3.50;1.00;;;30.00;97.10;;;;;;5011663;28;20192;-68
2022/07/03 12:17:01;;;;;;;1.27;1.08;;;30.10;96.40;;;;;;5011118;28;20192;-67
2022/07/03 12:19:27;;;;;;;1.67;0.90;;;30.10;96.40;;;;;;5010246;28;20287;-67
2022/07/03 12:21:54;;;;;;;2.70;0.90;;;30.00;96.10;;;;;;5011977;28;20647;-68
2022/07/03 12:24:21;;;;;;;1.98;0.90;;;30.20;96.50;;;;;;5011482;28;20223;-68
2022/07/03 12:26:48;;;;;;;1.10;1.00;;;30.40;95.80;;;;;;5011841;28;20200;-68
2022/07/03 12:29:16;;;;;;;1.30;0.85;;;30.40;95.40;;;;;;5006785;28;20188;-68
2022/07/03 12:31:48;;;;;;;1.15;1.00;;;30.40;96.50;;;;;;5011376;28;20200;-68
2022/07/03 12:34:16;;;;;;;1.67;1.05;;;30.40;96.40;;;;;;5011656;28;20315;-68
2022/07/03 12:36:57;;;;;;;2.25;1.00;;;30.40;96.30;;;;;;5007072;28;20609;-68
2022/07/03 12:39:41;;;;;;;5.32;1.10;;;30.30;95.90;;;;;;5011485;28;20196;-70
2022/07/03 12:42:18;;;;;;;2.42;0.80;;;30.30;95.60;;;;;;5010506;28;20222;-69
2022/07/03 12:45:03;;;;;;;1.08;0.98;;;30.20;95.50;;;;;;5011484;28;20224;-70
2022/07/03 12:47:31;;;;;;;2.83;0.90;;;30.40;95.80;;;;;;5006333;28;20199;-70
2022/07/03 12:50:03;;;;;;;0.80;0.80;;;30.10;95.90;;;;;;5011654;28;20571;-69
2022/07/03 12:52:31;;;;;;;2.22;1.10;;;30.00;95.70;;;;;;5010180;28;20675;-69
2022/07/03 12:54:59;;;;;;;1.27;1.05;;;30.10;96.90;;;;;;5010430;28;20227;-70
2022/07/03 13:00:17;;;;;;;2.38;0.80;;;30.90;94.60;;;;;;5010206;28;20666;-69
2022/07/03 13:02:46;;;;;;;1.38;0.90;;;30.80;95.10;;;;;;5013419;28;20817;-69
2022/07/03 13:05:18;;;;;;;2.50;1.15;;;31.00;94.60;;;;;;5010280;28;20593;-70
2022/07/03 13:07:48;;;;;;;2.65;0.82;;;31.10;94.40;;;;;;5011459;28;20196;-70
2022/07/03 13:10:15;;;;;;;2.67;0.80;;;31.00;95.10;;;;;;5011035;28;20196;-70
2022/07/03 13:12:54;;;;;;;2.05;1.00;;;30.90;94.30;;;;;;5008818;28;20709;-70
2022/07/03 13:15:24;;;;;;;0.93;0.80;;;31.00;94.60;;;;;;5010481;28;20227;-68
2022/07/03 13:17:54;;;;;;;2.35;1.10;;;31.10;95.00;;;;;;5011009;28;20203;-68